createdAt,value
2018-04-04T00:00:40.250Z,3.70
2018-04-04T00:01:42.790Z,3.37
2018-04-04T00:02:45.359Z,3.47
2018-04-04T00:03:46.869Z,2.90
2018-04-04T00:04:48.337Z,3.17
2018-04-04T00:05:50.118Z,3.10
2018-04-04T00:06:51.798Z,3.60
2018-04-04T00:07:55.052Z,2.67
2018-04-04T00:08:56.494Z,3.63
2018-04-04T00:09:57.938Z,3.17
2018-04-04T00:10:59.382Z,3.43
2018-04-04T00:12:00.836Z,3.37
2018-04-04T00:13:02.279Z,2.73
2018-04-04T00:14:03.711Z,2.73
2018-04-04T00:15:05.152Z,3.23
2018-04-04T00:16:06.587Z,2.40
2018-04-04T00:17:09.063Z,2.50
2018-04-04T00:18:11.598Z,2.67
2018-04-04T00:19:13.024Z,3.17
2018-04-04T00:20:15.966Z,3.33
2018-04-04T00:21:18.145Z,2.93
2018-04-04T00:22:20.602Z,3.23
2018-04-04T00:23:22.056Z,3.23
2018-04-04T00:24:25.184Z,3.30
2018-04-04T00:25:26.609Z,3.30
2018-04-04T00:26:28.843Z,3.37
2018-04-04T00:27:30.308Z,3.17
2018-04-04T00:28:31.718Z,3.30
2018-04-04T00:29:33.914Z,3.43
2018-04-04T00:30:35.375Z,3.53
2018-04-04T00:31:36.859Z,3.13
2018-04-04T00:32:38.611Z,3.70
2018-04-04T00:33:40.083Z,3.10
2018-04-04T00:34:42.254Z,3.50
2018-04-04T00:35:43.690Z,3.33
2018-04-04T00:36:45.850Z,3.60
2018-04-04T00:37:48.333Z,3.20
2018-04-04T00:38:50.502Z,3.63
2018-04-04T00:39:52.699Z,2.80
2018-04-04T00:40:54.185Z,3.03
2018-04-04T00:41:55.612Z,3.27
2018-04-04T00:42:57.322Z,3.40
2018-04-04T00:43:58.780Z,3.33
2018-04-04T00:45:01.030Z,3.07
2018-04-04T00:46:03.259Z,3.30
2018-04-04T00:47:04.712Z,3.10
2018-04-04T00:48:06.179Z,3.47
2018-04-04T00:49:07.662Z,2.90
2018-04-04T00:50:10.810Z,3.07
2018-04-04T00:51:13.369Z,3.40
2018-04-04T00:52:14.817Z,3.37
2018-04-04T00:53:16.555Z,3.20
2018-04-04T00:54:18.733Z,3.07
2018-04-04T00:55:20.878Z,3.50
2018-04-04T00:56:22.292Z,3.03
2018-04-04T00:57:23.751Z,3.67
2018-04-04T00:58:25.542Z,3.30
2018-04-04T00:59:26.970Z,4.20
2018-04-04T01:00:28.425Z,2.97
2018-04-04T01:01:29.903Z,2.60
2018-04-04T01:02:32.104Z,3.10
2018-04-04T01:03:33.933Z,2.37
2018-04-04T01:04:36.081Z,2.97
2018-04-04T01:05:38.303Z,2.87
2018-04-04T01:06:39.756Z,2.87
2018-04-04T01:07:41.971Z,3.27
2018-04-04T01:08:43.760Z,3.50
2018-04-04T01:09:46.001Z,2.70
2018-04-04T01:10:47.453Z,3.20
2018-04-04T01:11:48.913Z,2.90
2018-04-04T01:12:51.140Z,3.20
2018-04-04T01:13:53.055Z,2.70
2018-04-04T01:14:56.220Z,3.00
2018-04-04T01:15:57.691Z,3.43
2018-04-04T01:17:00.618Z,3.13
2018-04-04T01:18:03.563Z,3.30
2018-04-04T01:19:06.046Z,3.20
2018-04-04T01:20:08.366Z,3.10
2018-04-04T01:21:09.810Z,3.07
2018-04-04T01:22:11.294Z,3.20
2018-04-04T01:23:12.746Z,3.07
2018-04-04T01:24:14.950Z,2.83
2018-04-04T01:25:17.511Z,2.97
2018-04-04T01:26:20.098Z,2.87
2018-04-04T01:27:22.296Z,3.47
2018-04-04T01:28:23.755Z,3.10
2018-04-04T01:29:25.230Z,3.13
2018-04-04T01:30:26.665Z,3.07
2018-04-04T01:31:28.073Z,2.70
2018-04-04T01:32:30.272Z,2.70
2018-04-04T01:33:31.690Z,2.93
2018-04-04T01:34:34.159Z,3.23
2018-04-04T01:35:36.325Z,3.10
2018-04-04T01:36:38.518Z,2.97
2018-04-04T01:37:40.678Z,3.37
2018-04-04T01:38:42.083Z,3.40
2018-04-04T01:39:43.502Z,2.43
2018-04-04T01:40:44.922Z,3.30
2018-04-04T01:41:47.070Z,3.17
2018-04-04T01:42:48.499Z,2.97
2018-04-04T01:43:49.906Z,3.23
2018-04-04T01:44:52.071Z,3.07
2018-04-04T01:45:55.107Z,3.13
2018-04-04T01:48:16.563Z,3.70
2018-04-04T01:49:17.997Z,3.37
2018-04-04T01:50:19.728Z,2.93
2018-04-04T01:51:21.131Z,3.17
2018-04-04T01:52:22.586Z,3.10
2018-04-04T01:53:23.999Z,2.90
2018-04-04T01:54:25.442Z,3.23
2018-04-04T01:55:27.148Z,2.97
2018-04-04T01:56:29.000Z,3.40
2018-04-04T01:57:30.400Z,3.10
2018-04-04T01:58:53.331Z,2.33
2018-04-04T01:59:55.478Z,3.00
2018-04-04T02:00:56.896Z,2.87
2018-04-04T02:01:58.298Z,3.40
2018-04-04T02:03:00.454Z,3.30
2018-04-04T02:04:02.659Z,3.40
2018-04-04T02:05:04.844Z,2.70
2018-04-04T02:06:06.331Z,2.77
2018-04-04T02:07:08.085Z,3.27
2018-04-04T02:08:09.499Z,3.10
2018-04-04T02:09:10.917Z,2.70
2018-04-04T02:10:13.817Z,2.83
2018-04-04T02:11:15.547Z,3.10
2018-04-04T02:12:17.710Z,2.70
2018-04-04T02:13:20.602Z,2.53
2018-04-04T02:14:22.811Z,2.90
2018-04-04T02:15:24.972Z,3.13
2018-04-04T02:16:26.467Z,2.37
2018-04-04T02:17:27.883Z,2.50
2018-04-04T02:18:29.294Z,2.73
2018-04-04T02:19:31.455Z,3.20
2018-04-04T02:20:33.621Z,2.80
2018-04-04T02:21:35.384Z,2.73
2018-04-04T02:22:37.566Z,2.70
2018-04-04T02:23:38.997Z,3.63
2018-04-04T02:24:40.410Z,2.50
2018-04-04T02:25:41.873Z,2.97
2018-04-04T02:26:45.030Z,3.10
2018-04-04T02:27:47.256Z,2.67
2018-04-04T02:28:48.707Z,3.50
2018-04-04T02:29:50.094Z,2.50
2018-04-04T02:30:51.515Z,2.57
2018-04-04T02:31:52.963Z,2.77
2018-04-04T02:32:54.387Z,2.57
2018-04-04T02:33:56.578Z,2.50
2018-04-04T02:34:57.974Z,2.67
2018-04-04T02:35:59.438Z,2.90
2018-04-04T02:37:01.118Z,2.87
2018-04-04T02:38:02.538Z,2.70
2018-04-04T02:39:04.879Z,2.90
2018-04-04T02:40:08.419Z,2.97
2018-04-04T02:41:09.893Z,2.60
2018-04-04T02:42:12.155Z,3.63
2018-04-04T02:43:13.620Z,2.90
2018-04-04T02:44:15.074Z,2.30
2018-04-04T02:45:16.532Z,2.80
2018-04-04T02:46:17.970Z,2.63
2018-04-04T02:47:20.810Z,2.70
2018-04-04T02:48:22.258Z,2.33
2018-04-04T02:49:23.720Z,2.60
2018-04-04T02:50:25.206Z,2.50
2018-04-04T02:51:26.648Z,2.87
2018-04-04T02:52:28.090Z,2.60
2018-04-04T02:53:30.268Z,3.03
2018-04-04T02:54:31.713Z,2.53
2018-04-04T02:55:33.141Z,2.70
2018-04-04T02:56:35.321Z,2.60
2018-04-04T02:57:36.782Z,2.80
2018-04-04T02:58:39.115Z,2.43
2018-04-04T02:59:42.015Z,2.83
2018-04-04T03:00:43.425Z,3.27
2018-04-04T03:01:44.908Z,2.80
2018-04-04T03:02:46.409Z,3.00
2018-04-04T03:03:47.969Z,2.83
2018-04-04T03:04:50.190Z,2.73
2018-04-04T03:05:51.679Z,3.10
2018-04-04T03:06:53.150Z,2.63
2018-04-04T03:07:54.644Z,2.30
2018-04-04T03:08:56.118Z,2.30
2018-04-04T03:09:57.582Z,2.47
2018-04-04T03:10:59.078Z,2.63
2018-04-04T03:12:01.241Z,2.50
2018-04-04T03:13:20.539Z,3.03
2018-04-04T03:14:22.019Z,2.47
2018-04-04T03:15:23.454Z,2.70
2018-04-04T03:16:24.950Z,2.20
2018-04-04T03:17:26.394Z,1.93
2018-04-04T03:18:27.902Z,2.60
2018-04-04T03:19:29.370Z,2.90
2018-04-04T03:20:30.803Z,2.23
2018-04-04T03:21:32.237Z,2.10
2018-04-04T03:22:35.190Z,1.87
2018-04-04T03:23:36.659Z,2.53
2018-04-04T03:24:39.183Z,2.60
2018-04-04T03:25:40.643Z,2.40
2018-04-04T03:26:43.226Z,3.17
2018-04-04T03:27:44.675Z,2.77
2018-04-04T03:28:46.147Z,2.57
2018-04-04T03:29:47.561Z,2.57
2018-04-04T03:30:49.059Z,2.50
2018-04-04T03:31:50.526Z,2.73
2018-04-04T03:32:52.748Z,2.17
2018-04-04T03:33:54.988Z,2.73
2018-04-04T03:34:57.174Z,2.20
2018-04-04T03:35:58.638Z,2.10
2018-04-04T03:37:00.083Z,2.30
2018-04-04T03:38:01.581Z,2.60
2018-04-04T03:39:03.202Z,2.40
2018-04-04T03:40:04.703Z,2.27
2018-04-04T03:41:06.898Z,2.40
2018-04-04T03:42:08.411Z,2.20
2018-04-04T03:43:09.871Z,2.23
2018-04-04T03:44:11.662Z,2.73
2018-04-04T03:45:13.123Z,2.70
2018-04-04T03:46:16.086Z,2.47
2018-04-04T03:47:17.587Z,2.53
2018-04-04T03:48:19.774Z,2.40
2018-04-04T03:49:21.567Z,2.60
2018-04-04T03:50:23.812Z,2.40
2018-04-04T03:51:26.027Z,3.03
2018-04-04T03:52:27.484Z,3.23
2018-04-04T03:53:28.994Z,2.43
2018-04-04T03:54:30.786Z,3.23
2018-04-04T03:55:32.235Z,3.93
2018-04-04T03:56:33.706Z,4.50
2018-04-04T03:57:35.214Z,3.67
2018-04-04T03:58:38.169Z,3.70
2018-04-04T03:59:40.106Z,3.70
2018-04-04T04:00:41.600Z,4.27
2018-04-04T04:02:07.439Z,3.30
2018-04-04T04:04:59.952Z,3.90
2018-04-04T04:08:04.947Z,3.70
2018-04-04T04:09:06.480Z,2.80
2018-04-04T04:10:08.099Z,3.37
2018-04-04T04:11:09.586Z,3.17
2018-04-04T04:12:11.110Z,2.93
2018-04-04T04:13:35.687Z,2.87
2018-04-04T04:14:37.187Z,2.47
2018-04-04T04:15:40.188Z,2.87
2018-04-04T04:16:41.687Z,3.17
2018-04-04T04:17:44.946Z,2.70
2018-04-04T04:18:46.494Z,2.60
2018-04-04T04:19:48.088Z,2.97
2018-04-04T04:20:51.355Z,2.93
2018-04-04T04:21:52.895Z,2.40
2018-04-04T04:22:54.493Z,2.53
2018-04-04T04:23:56.107Z,3.47
2018-04-04T04:24:57.710Z,2.77
2018-04-04T04:26:00.843Z,2.83
2018-04-04T04:27:02.481Z,2.37
2018-04-04T04:28:04.105Z,2.50
2018-04-04T04:29:05.811Z,3.03
2018-04-04T04:30:08.003Z,2.50
2018-04-04T04:31:10.065Z,2.80
2018-04-04T04:32:11.735Z,2.83
2018-04-04T04:34:33.346Z,2.70
2018-04-04T04:35:34.948Z,2.33
2018-04-04T04:36:36.879Z,2.10
2018-04-04T04:37:39.430Z,2.93
2018-04-04T04:38:41.070Z,2.50
2018-04-04T04:39:43.450Z,2.73
2018-04-04T04:40:45.087Z,2.70
2018-04-04T04:41:47.079Z,2.40
2018-04-04T04:45:27.922Z,2.50
2018-04-04T04:46:48.107Z,2.60
2018-04-04T04:50:32.942Z,2.83
2018-04-04T04:51:36.070Z,2.70
2018-04-04T04:52:39.490Z,2.50
2018-04-04T04:53:41.122Z,2.80
2018-04-04T04:54:42.784Z,3.03
2018-04-04T04:55:45.107Z,3.10
2018-04-04T04:56:46.849Z,2.87
2018-04-04T04:57:48.540Z,3.00
2018-04-04T04:58:51.315Z,2.73
2018-04-04T04:59:54.623Z,3.23
2018-04-04T05:00:57.911Z,2.37
2018-04-04T05:02:01.176Z,2.50
2018-04-04T05:03:02.797Z,2.77
2018-04-04T05:04:04.437Z,2.80
2018-04-04T05:05:06.406Z,3.03
2018-04-04T05:06:08.096Z,2.30
2018-04-04T05:07:10.486Z,3.23
2018-04-04T05:08:12.179Z,2.73
2018-04-04T05:09:15.514Z,3.17
2018-04-04T05:10:17.212Z,3.33
2018-04-04T05:11:18.881Z,3.43
2018-04-04T05:12:20.554Z,3.10
2018-04-04T05:13:52.180Z,2.70
2018-04-04T05:14:55.482Z,2.23
2018-04-04T05:15:57.094Z,2.10
2018-04-04T05:16:58.748Z,2.63
2018-04-04T05:18:00.370Z,2.70
2018-04-04T05:19:01.980Z,2.70
2018-04-04T05:20:05.331Z,2.40
2018-04-04T05:21:08.740Z,2.53
2018-04-04T05:22:12.053Z,2.13
2018-04-04T05:23:13.703Z,2.43
2018-04-04T05:24:17.358Z,2.63
2018-04-04T05:25:19.010Z,2.50
2018-04-04T05:26:20.660Z,2.60
2018-04-04T05:27:22.366Z,2.30
2018-04-04T05:28:25.667Z,2.63
2018-04-04T05:29:27.332Z,2.90
2018-04-04T05:32:28.006Z,2.27
2018-04-04T05:33:31.318Z,2.67
2018-04-04T05:34:33.738Z,3.07
2018-04-04T05:37:45.299Z,3.20
2018-04-04T05:38:46.906Z,2.53
2018-04-04T05:39:48.828Z,2.97
2018-04-04T05:40:50.459Z,3.03
2018-04-04T05:41:52.094Z,2.70
2018-04-04T05:42:55.240Z,3.00
2018-04-04T05:43:56.857Z,2.57
2018-04-04T05:47:55.313Z,2.50
2018-04-04T05:48:58.662Z,2.10
2018-04-04T05:57:25.486Z,3.57
2018-04-04T06:01:26.426Z,2.23
2018-04-04T06:03:15.427Z,2.93
2018-04-04T06:10:44.217Z,2.83
2018-04-04T06:18:10.393Z,2.70
2018-04-04T06:19:11.929Z,2.33
2018-04-04T06:26:15.654Z,2.40
2018-04-04T06:42:57.505Z,2.27
2018-04-04T07:07:13.874Z,2.90
2018-04-04T07:09:28.268Z,2.13
2018-04-04T07:10:29.838Z,2.40
2018-04-04T07:14:06.517Z,1.97
2018-04-04T07:15:39.029Z,1.93
2018-04-04T07:16:40.745Z,2.27
2018-04-04T07:17:42.348Z,2.83
2018-04-04T07:42:02.243Z,2.20
2018-04-04T07:47:21.977Z,1.90
2018-04-04T07:58:30.055Z,2.20
2018-04-04T08:10:21.301Z,2.23
2018-04-04T08:11:23.745Z,2.20
2018-04-04T08:12:26.173Z,2.17
2018-04-04T08:13:28.620Z,2.50
2018-04-04T08:14:30.349Z,2.40
2018-04-04T08:15:32.038Z,2.10
2018-04-04T08:24:14.399Z,2.20
2018-04-04T08:25:15.917Z,2.10
2018-04-04T08:28:51.930Z,2.13
2018-04-04T08:52:17.922Z,2.10
2018-04-04T08:57:52.371Z,2.03
2018-04-04T09:07:33.253Z,1.60
2018-04-04T09:10:46.269Z,1.57
2018-04-04T09:11:48.699Z,1.50
2018-04-04T09:23:45.174Z,2.03
2018-04-04T09:28:15.543Z,2.27
2018-04-04T09:29:17.269Z,1.70
2018-04-04T09:30:19.874Z,2.20
2018-04-04T09:31:22.090Z,2.20
2018-04-04T09:32:23.638Z,1.70
2018-04-04T09:33:25.131Z,1.80
2018-04-04T09:36:15.925Z,1.87
2018-04-04T09:37:17.556Z,1.80
2018-04-04T09:38:20.886Z,2.13
2018-04-04T09:43:46.661Z,1.67
2018-04-04T09:44:48.347Z,1.87
2018-04-04T09:48:24.533Z,1.67
2018-04-04T09:49:26.326Z,1.80
2018-04-04T09:50:47.205Z,1.90
2018-04-04T09:51:48.770Z,1.87
2018-04-04T09:52:51.865Z,2.00
2018-04-04T09:53:54.063Z,2.53
2018-04-04T09:54:57.219Z,1.57
2018-04-04T09:55:59.659Z,1.43
2018-04-04T09:57:02.713Z,1.73
2018-04-04T09:58:05.387Z,2.10
2018-04-04T09:59:07.055Z,1.73
2018-04-04T10:00:09.786Z,1.83
2018-04-04T10:01:11.406Z,1.80
2018-04-04T10:02:19.931Z,1.50
2018-04-04T10:03:22.292Z,1.57
2018-04-04T10:04:57.156Z,1.80
2018-04-04T10:06:00.258Z,1.50
2018-04-04T10:07:01.968Z,2.20
2018-04-04T10:08:03.647Z,1.87
2018-04-04T10:11:51.525Z,1.83
2018-04-04T10:15:32.519Z,1.90
2018-04-04T10:16:34.711Z,1.83
2018-04-04T10:19:08.250Z,1.70
2018-04-04T10:20:11.030Z,1.57
2018-04-04T10:22:29.831Z,1.97
2018-04-04T10:23:32.283Z,1.80
2018-04-04T10:25:52.276Z,1.60
2018-04-04T10:26:55.655Z,2.10
2018-04-04T10:28:12.815Z,1.70
2018-04-04T10:29:14.338Z,1.87
2018-04-04T10:33:30.099Z,2.03
2018-04-04T10:37:09.895Z,2.00
2018-04-04T10:40:46.399Z,2.00
2018-04-04T10:44:27.332Z,1.60
2018-04-04T10:49:43.790Z,1.77
2018-04-04T10:58:36.452Z,2.03
2018-04-04T10:59:38.145Z,1.83
2018-04-04T11:00:41.041Z,1.53
2018-04-04T11:01:43.281Z,1.80
2018-04-04T11:04:06.009Z,1.73
2018-04-04T11:11:03.015Z,1.60
2018-04-04T11:13:35.313Z,1.50
2018-04-04T11:22:56.942Z,1.03
2018-04-04T11:28:43.548Z,1.30
2018-04-04T11:31:02.429Z,1.13
2018-04-04T11:32:04.092Z,1.30
2018-04-04T11:33:05.762Z,1.10
2018-04-04T11:34:07.817Z,1.33
2018-04-04T11:35:09.445Z,0.90
2018-04-04T11:36:11.837Z,1.27
2018-04-04T11:42:27.923Z,1.17
2018-04-04T11:47:46.715Z,0.87
2018-04-04T11:48:48.395Z,0.80
2018-04-04T11:52:47.014Z,0.80
2018-04-04T11:53:49.775Z,1.00
2018-04-04T11:55:49.285Z,1.27
2018-04-04T11:56:50.875Z,0.80
2018-04-04T11:57:53.043Z,0.80
2018-04-04T11:58:54.757Z,0.87
2018-04-04T12:19:54.848Z,0.70
2018-04-04T12:22:52.260Z,0.90
2018-04-04T12:23:54.671Z,0.73
2018-04-04T12:24:56.325Z,0.70
2018-04-04T12:25:57.801Z,1.00
2018-04-04T12:26:59.235Z,0.70
2018-04-04T12:28:00.737Z,0.80
2018-04-04T12:29:02.993Z,0.80
2018-04-04T12:30:04.567Z,0.80
2018-04-04T12:31:06.258Z,0.70
2018-04-04T12:32:07.674Z,1.10
2018-04-04T12:33:09.155Z,0.70
2018-04-04T12:34:10.625Z,0.70
2018-04-04T12:35:12.119Z,0.90
2018-04-04T12:40:55.239Z,0.60
2018-04-04T12:41:56.853Z,0.60
2018-04-04T12:45:42.551Z,0.80
2018-04-04T12:46:44.249Z,0.80
2018-04-04T12:47:45.916Z,0.70
2018-04-04T12:48:47.514Z,0.80
2018-04-04T12:49:49.101Z,0.60
2018-04-04T12:50:50.741Z,0.60
2018-04-04T12:51:52.412Z,0.70
2018-04-04T12:52:54.077Z,0.63
2018-04-04T12:53:56.100Z,0.80
2018-04-04T12:54:57.745Z,0.73
2018-04-04T12:55:59.407Z,0.73
2018-04-04T13:06:51.390Z,0.60
2018-04-04T13:09:21.024Z,0.70
2018-04-04T13:10:22.661Z,0.80
2018-04-04T13:11:24.371Z,0.77
2018-04-04T13:13:02.945Z,0.60
2018-04-04T13:14:04.572Z,0.60
2018-04-04T13:15:06.303Z,0.60
2018-04-04T13:16:08.039Z,0.83
2018-04-04T13:19:40.863Z,0.90
2018-04-04T13:20:44.249Z,0.70
2018-04-04T13:24:22.573Z,0.70
2018-04-04T13:25:24.230Z,0.60
2018-04-04T13:26:25.880Z,0.70
2018-04-04T13:27:28.236Z,0.60
2018-04-04T13:28:29.948Z,0.70
2018-04-04T13:31:19.811Z,0.60
2018-04-04T13:32:21.781Z,0.60
2018-04-04T13:35:51.043Z,0.60
2018-04-04T13:38:10.413Z,0.90
2018-04-04T13:39:13.575Z,0.60
2018-04-04T13:40:15.229Z,0.60
2018-04-04T13:43:15.563Z,0.50
2018-04-04T13:44:32.801Z,0.80
2018-04-04T13:45:34.482Z,0.60
2018-04-04T13:46:36.325Z,0.60
2018-04-04T13:47:37.991Z,0.60
2018-04-04T13:49:56.493Z,0.60
2018-04-04T13:52:29.637Z,0.60
2018-04-04T13:54:20.994Z,0.60
2018-04-04T13:58:31.060Z,0.70
2018-04-04T14:02:24.117Z,0.50
2018-04-04T14:03:27.658Z,0.70
2018-04-04T14:04:30.106Z,0.60
2018-04-04T14:05:31.845Z,0.60
2018-04-04T14:06:33.541Z,0.40
2018-04-04T14:07:36.695Z,0.40
2018-04-04T14:08:39.478Z,0.60
2018-04-04T14:09:41.170Z,0.50
2018-04-04T14:11:59.662Z,0.60
2018-04-04T14:13:01.354Z,0.50
2018-04-04T14:14:02.959Z,0.67
2018-04-04T14:15:04.641Z,0.70
2018-04-04T14:16:30.844Z,0.67
2018-04-04T14:17:32.992Z,0.60
2018-04-04T14:19:58.307Z,0.40
2018-04-04T14:23:42.065Z,0.50
2018-04-04T14:24:45.384Z,0.50
2018-04-04T14:27:04.123Z,0.57
2018-04-04T14:28:06.527Z,0.60
2018-04-04T14:29:09.136Z,0.90
2018-04-04T14:30:12.581Z,0.70
2018-04-04T14:32:34.661Z,0.70
2018-04-04T14:33:36.353Z,0.80
2018-04-04T14:34:38.054Z,0.80
2018-04-04T14:35:58.574Z,0.60
2018-04-04T14:37:00.266Z,0.70
2018-04-04T14:40:57.613Z,0.60
2018-04-04T14:42:00.036Z,0.70
2018-04-04T14:43:01.759Z,0.60
2018-04-04T14:44:05.116Z,0.60
2018-04-04T14:52:23.367Z,0.70
2018-04-04T14:53:25.006Z,0.40
2018-04-04T14:58:56.851Z,0.53
2018-04-04T14:59:58.541Z,0.80
2018-04-04T15:01:00.930Z,0.80
2018-04-04T15:02:04.278Z,1.00
2018-04-04T15:06:13.711Z,0.73
2018-04-04T15:13:03.654Z,0.70
2018-04-04T15:14:05.273Z,0.80
2018-04-04T15:15:06.947Z,0.70
2018-04-04T15:17:41.054Z,0.80
2018-04-04T15:18:44.432Z,0.70
2018-04-04T15:19:47.899Z,0.60
2018-04-04T15:20:49.682Z,0.60
2018-04-04T15:21:51.481Z,0.50
2018-04-04T15:22:54.843Z,0.80
2018-04-04T15:23:56.446Z,0.60
2018-04-04T15:24:59.805Z,0.70
2018-04-04T15:26:01.437Z,0.60
2018-04-04T15:29:11.647Z,0.70
2018-04-04T15:30:14.926Z,0.70
2018-04-04T15:31:16.593Z,0.50
2018-04-04T15:32:19.914Z,0.50
2018-04-04T15:33:23.255Z,0.70
2018-04-04T15:34:26.596Z,0.60
2018-04-04T15:35:29.876Z,0.60
2018-04-04T15:36:31.506Z,0.70
2018-04-04T15:37:34.773Z,0.80
2018-04-04T15:38:38.054Z,0.80
2018-04-04T15:41:30.066Z,0.73
2018-04-04T15:42:31.764Z,0.80
2018-04-04T15:43:35.117Z,0.73
2018-04-04T15:44:36.836Z,0.60
2018-04-04T15:45:40.085Z,0.50
2018-04-04T15:46:44.039Z,0.60
2018-04-04T15:47:45.734Z,0.60
2018-04-04T15:48:49.003Z,0.77
2018-04-04T15:49:52.341Z,0.80
2018-04-04T15:50:53.961Z,0.90
2018-04-04T15:51:57.256Z,0.60
2018-04-04T15:53:00.075Z,0.70
2018-04-04T15:54:01.670Z,0.60
2018-04-04T15:59:29.794Z,0.63
2018-04-04T16:00:31.405Z,0.90
2018-04-04T16:01:34.780Z,0.70
2018-04-04T16:02:36.469Z,0.70
2018-04-04T16:03:39.829Z,0.70
2018-04-04T16:08:36.748Z,0.60
2018-04-04T16:09:38.612Z,0.70
2018-04-04T16:10:42.036Z,0.60
2018-04-04T16:13:06.029Z,0.60
2018-04-04T16:14:09.437Z,0.70
2018-04-04T16:15:12.813Z,0.60
2018-04-04T16:16:14.531Z,0.40
2018-04-04T16:17:17.847Z,0.77
2018-04-04T16:18:19.549Z,0.60
2018-04-04T16:19:21.971Z,1.13
2018-04-04T16:20:25.284Z,1.53
2018-04-04T16:21:27.028Z,0.90
2018-04-04T16:23:52.071Z,0.60
2018-04-04T16:24:55.396Z,2.53
2018-04-04T16:29:40.469Z,0.80
2018-04-04T16:30:43.833Z,0.77
2018-04-04T16:31:46.938Z,0.90
2018-04-04T16:32:50.189Z,1.30
2018-04-04T16:34:07.688Z,7.10
2018-04-04T16:36:29.542Z,1.27
2018-04-04T16:37:58.885Z,2.90
2018-04-04T16:39:02.269Z,0.97
2018-04-04T16:40:03.941Z,0.67
2018-04-04T16:41:05.613Z,0.60
2018-04-04T16:43:25.811Z,0.70
2018-04-04T16:45:44.130Z,0.63
2018-04-04T16:46:47.407Z,0.70
2018-04-04T16:51:10.764Z,1.50
2018-04-04T16:53:34.463Z,0.90
2018-04-04T16:54:37.773Z,0.70
2018-04-04T16:59:09.692Z,0.80
2018-04-04T17:00:13.024Z,0.77
2018-04-04T17:01:16.403Z,0.90
2018-04-04T17:02:18.012Z,0.50
2018-04-04T17:03:21.299Z,0.60
2018-04-04T17:04:23.010Z,0.87
2018-04-04T17:05:24.656Z,0.77
2018-04-04T17:06:27.980Z,0.93
2018-04-04T17:07:29.652Z,0.67
2018-04-04T17:08:32.923Z,0.90
2018-04-04T17:12:46.196Z,0.70
2018-04-04T17:13:47.844Z,0.80
2018-04-04T17:15:50.018Z,0.73
2018-04-04T17:16:51.824Z,0.70
2018-04-04T17:17:55.106Z,0.80
2018-04-04T17:18:56.701Z,0.80
2018-04-04T17:20:00.062Z,1.00
2018-04-04T17:22:13.463Z,0.80
2018-04-04T17:23:16.818Z,1.07
2018-04-04T17:24:18.450Z,0.70
2018-04-04T17:25:20.060Z,0.70
2018-04-04T17:26:23.332Z,0.80
2018-04-04T17:28:16.461Z,0.83
2018-04-04T17:31:53.539Z,0.90
2018-04-04T17:35:30.893Z,2.03
2018-04-04T17:37:49.174Z,1.00
2018-04-04T17:42:17.282Z,0.73
2018-04-04T17:43:20.122Z,0.90
2018-04-04T17:44:23.418Z,1.00
2018-04-04T17:45:25.032Z,1.07
2018-04-04T17:46:26.639Z,1.00
2018-04-04T17:47:30.000Z,1.50
2018-04-04T17:48:31.717Z,1.10
2018-04-04T17:49:34.976Z,1.40
2018-04-04T17:54:39.960Z,1.10
2018-04-04T17:55:43.262Z,1.20
2018-04-04T17:57:16.752Z,0.90
2018-04-04T17:58:20.085Z,0.60
2018-04-04T17:59:21.711Z,0.70
2018-04-04T18:03:00.132Z,1.10
2018-04-04T18:04:03.375Z,1.10
2018-04-04T18:05:04.916Z,0.90
2018-04-04T18:06:06.495Z,0.80
2018-04-04T18:07:08.095Z,0.90
2018-04-04T18:08:09.622Z,1.00
2018-04-04T18:09:12.868Z,0.90
2018-04-04T18:10:16.064Z,1.00
2018-04-04T18:11:17.666Z,0.90
2018-04-04T18:12:20.846Z,0.80
2018-04-04T18:13:24.068Z,0.70
2018-04-04T18:14:27.327Z,0.97
2018-04-04T18:15:30.488Z,1.03
2018-04-04T18:16:33.675Z,0.97
2018-04-04T18:17:36.845Z,0.80
2018-04-04T18:18:40.076Z,0.80
2018-04-04T18:19:41.609Z,0.80
2018-04-04T18:20:44.786Z,0.90
2018-04-04T18:21:48.007Z,0.83
2018-04-04T18:22:49.513Z,0.80
2018-04-04T18:23:52.681Z,1.10
2018-04-04T18:24:55.869Z,0.90
2018-04-04T18:25:57.334Z,0.90
2018-04-04T18:26:58.812Z,0.73
2018-04-04T18:28:02.002Z,1.17
2018-04-04T18:29:05.158Z,0.63
2018-04-04T18:30:09.122Z,0.80
2018-04-04T18:31:12.046Z,0.70
2018-04-04T18:32:15.002Z,0.80
2018-04-04T18:33:16.487Z,1.30
2018-04-04T18:34:19.693Z,0.73
2018-04-04T18:35:22.854Z,0.70
2018-04-04T18:36:26.048Z,0.80
2018-04-04T18:37:27.548Z,0.80
2018-04-04T18:38:29.014Z,1.10
2018-04-04T18:39:31.251Z,0.87
2018-04-04T18:40:32.710Z,0.70
2018-04-04T18:41:34.197Z,0.90
2018-04-04T18:42:37.364Z,1.00
2018-04-04T18:56:39.084Z,2.30
2018-04-04T18:57:40.542Z,2.23
2018-04-04T18:58:43.716Z,2.07
2018-04-04T18:59:46.874Z,1.97
2018-04-04T19:00:50.010Z,2.43
2018-04-04T19:01:51.513Z,2.00
2018-04-04T19:02:54.114Z,2.60
2018-04-04T19:03:57.072Z,2.20
2018-04-04T19:05:00.015Z,2.43
2018-04-04T19:06:01.478Z,1.80
2018-04-04T19:07:03.003Z,2.70
2018-04-04T19:08:04.497Z,1.80
2018-04-04T19:09:05.988Z,2.07
2018-04-04T19:10:09.114Z,3.10
2018-04-04T19:11:12.287Z,2.57
2018-04-04T19:12:15.491Z,2.43
2018-04-04T19:13:16.971Z,2.23
2018-04-04T19:14:19.194Z,2.03
2018-04-04T19:15:22.096Z,2.60
2018-04-04T19:16:25.231Z,2.13
2018-04-04T19:17:26.678Z,2.17
2018-04-04T19:18:28.147Z,1.90
2018-04-04T19:19:31.382Z,2.30
2018-04-04T19:20:32.818Z,2.57
2018-04-04T19:21:34.995Z,2.73
2018-04-04T19:22:36.514Z,2.30
2018-04-04T19:23:38.064Z,1.83
2018-04-04T19:24:39.548Z,1.97
2018-04-04T19:25:41.746Z,1.70
2018-04-04T19:26:43.216Z,2.13
2018-04-04T19:27:44.699Z,1.93
2018-04-04T19:28:46.141Z,1.50
2018-04-04T19:29:47.618Z,1.77
2018-04-04T19:30:49.843Z,1.30
2018-04-04T19:31:51.302Z,1.60
2018-04-04T19:32:52.771Z,1.97
2018-04-04T19:33:54.257Z,1.73
2018-04-04T19:34:55.670Z,1.97
2018-04-04T19:35:57.122Z,1.67
2018-04-04T19:36:58.570Z,1.60
2018-04-04T19:38:00.053Z,1.50
2018-04-04T19:39:03.101Z,1.33
2018-04-04T19:40:04.550Z,1.47
2018-04-04T19:41:06.003Z,1.40
2018-04-04T19:42:07.483Z,1.80
2018-04-04T19:43:10.718Z,1.50
2018-04-04T19:44:12.214Z,1.30
2018-04-04T19:45:13.675Z,1.57
2018-04-04T19:46:15.110Z,1.60
2018-04-04T19:47:16.573Z,1.50
2018-04-04T19:48:19.176Z,1.40
2018-04-04T19:49:22.087Z,1.40
2018-04-04T19:50:24.299Z,1.43
2018-04-04T19:51:25.742Z,1.40
2018-04-04T19:52:27.214Z,1.40
2018-04-04T19:53:28.671Z,1.33
2018-04-04T19:54:31.827Z,1.70
2018-04-04T19:55:33.327Z,1.43
2018-04-04T19:56:35.523Z,1.43
2018-04-04T19:57:37.056Z,1.47
2018-04-04T19:58:40.035Z,1.40
2018-04-04T19:59:42.238Z,1.83
2018-04-04T20:00:43.694Z,1.57
2018-04-04T20:01:45.132Z,1.40
2018-04-04T20:02:46.590Z,1.27
2018-04-04T20:03:48.067Z,1.60
2018-04-04T20:04:49.532Z,1.40
2018-04-04T20:05:51.746Z,1.37
2018-04-04T20:06:54.326Z,1.20
2018-04-04T20:07:56.520Z,1.30
2018-04-04T20:08:59.088Z,1.30
2018-04-04T20:10:00.874Z,1.40
2018-04-04T20:11:02.340Z,1.30
2018-04-04T20:12:04.918Z,1.30
2018-04-04T20:13:06.390Z,1.10
2018-04-04T20:14:09.338Z,1.40
2018-04-04T20:15:10.840Z,1.20
2018-04-04T20:16:13.054Z,1.30
2018-04-04T20:17:14.534Z,1.20
2018-04-04T20:18:16.010Z,1.17
2018-04-04T20:19:18.504Z,1.30
2018-04-04T20:20:19.987Z,1.30
2018-04-04T20:21:21.440Z,1.10
2018-04-04T20:22:22.943Z,1.30
2018-04-04T20:23:26.107Z,1.20
2018-04-04T20:24:27.654Z,1.20
2018-04-04T20:25:29.112Z,1.20
2018-04-04T20:26:30.592Z,1.60
2018-04-04T20:27:32.809Z,1.13
2018-04-04T20:28:34.259Z,1.37
2018-04-04T20:30:14.745Z,1.30
2018-04-04T20:31:16.212Z,1.43
2018-04-04T20:32:17.750Z,1.47
2018-04-04T20:34:10.162Z,1.30
2018-04-04T20:35:12.346Z,1.03
2018-04-04T20:36:13.868Z,1.30
2018-04-04T20:37:16.038Z,1.17
2018-04-04T20:38:19.176Z,1.20
2018-04-04T20:39:20.665Z,1.10
2018-04-04T20:40:22.142Z,1.50
2018-04-04T20:41:44.600Z,1.30
2018-04-04T20:42:46.075Z,1.40
2018-04-04T20:44:08.548Z,1.20
2018-04-04T20:47:14.978Z,1.10
2018-04-04T20:48:16.470Z,1.17
2018-04-04T20:49:17.950Z,1.50
2018-04-04T20:50:19.407Z,1.30
2018-04-04T20:51:20.872Z,1.10
2018-04-04T20:52:22.651Z,1.03
2018-04-04T20:53:24.863Z,1.43
2018-04-04T20:54:26.320Z,1.20
2018-04-04T20:55:27.754Z,1.30
2018-04-04T20:56:29.226Z,1.33
2018-04-04T20:57:31.072Z,1.30
2018-04-04T20:58:32.547Z,1.10
2018-04-04T20:59:33.987Z,1.63
2018-04-04T21:00:35.523Z,1.43
2018-04-04T21:01:38.383Z,1.13
2018-04-04T21:02:41.407Z,1.20
2018-04-04T21:03:44.326Z,1.20
2018-04-04T21:04:45.811Z,1.10
2018-04-04T21:05:48.014Z,0.97
2018-04-04T21:07:14.561Z,1.20
2018-04-04T21:08:16.098Z,1.23
2018-04-04T21:09:17.526Z,1.37
2018-04-04T21:10:19.746Z,1.13
2018-04-04T21:11:21.168Z,1.10
2018-04-04T21:12:22.660Z,1.50
2018-04-04T21:13:24.106Z,1.10
2018-04-04T21:14:25.542Z,1.20
2018-04-04T21:15:26.987Z,1.30
2018-04-04T21:16:28.460Z,1.27
2018-04-04T21:17:29.961Z,1.00
2018-04-04T21:18:31.406Z,1.40
2018-04-04T21:19:34.342Z,1.23
2018-04-04T21:20:35.789Z,1.33